Time;durP1;ratioP1;P1;durP2;ratioP2;P2;SDS_P1;SDS_P2;PMS_P1;PMS_P2;Temp;Humidity;BMP_temperature;BMP_pressure;BME280_temperature;BME280_humidity;BME280_pressure;Samples;Min_cycle;Max_cycle;Signal;HPM_P1;HPM_P2
2022/03/25 00:02:04;;;;;;;25.53;17.33;;;;;;;;;;5008689;28;20723;-36
2022/03/25 00:04:30;;;;;;;29.90;18.33;;;;;;;;;;5005367;28;20790;-36
2022/03/25 00:06:56;;;;;;;28.60;17.47;;;;;;;;;;5000053;28;20177;-36
2022/03/25 00:09:22;;;;;;;32.80;18.30;;;;;;;;;;5000982;28;20208;-36
2022/03/25 00:11:48;;;;;;;31.03;18.67;;;;;;;;;;5000004;28;20539;-36
2022/03/25 00:14:15;;;;;;;32.07;18.23;;;;;;;;;;5003790;28;20451;-36
2022/03/25 00:16:42;;;;;;;32.70;18.43;;;;;;;;;;4997929;28;20193;-36
2022/03/25 00:19:08;;;;;;;31.83;18.67;;;;;;;;;;4996177;28;20393;-36
2022/03/25 00:21:34;;;;;;;28.23;17.80;;;;;;;;;;5005310;28;20168;-36
2022/03/25 00:24:01;;;;;;;28.27;17.53;;;;;;;;;;5000733;28;21355;-36
2022/03/25 00:26:27;;;;;;;28.57;17.90;;;;;;;;;;4982258;28;20200;-36
2022/03/25 00:28:53;;;;;;;24.73;15.77;;;;;;;;;;4976345;28;20197;-36
2022/03/25 00:31:20;;;;;;;27.93;16.97;;;;;;;;;;5003824;28;20460;-36
2022/03/25 00:33:49;;;;;;;24.47;15.97;;;;;;;;;;5003223;28;20187;-36
2022/03/25 00:36:16;;;;;;;26.07;16.43;;;;;;;;;;4999425;28;20298;-36
2022/03/25 00:38:42;;;;;;;25.30;16.20;;;;;;;;;;5000144;28;20184;-36
2022/03/25 00:41:11;;;;;;;27.77;16.90;;;;;;;;;;5004973;28;20582;-36
2022/03/25 00:43:37;;;;;;;27.50;15.00;;;;;;;;;;5001511;28;20196;-36
2022/03/25 00:46:03;;;;;;;25.97;15.77;;;;;;;;;;5000551;28;20534;-36
2022/03/25 00:48:30;;;;;;;26.37;15.63;;;;;;;;;;4998494;28;21032;-36
2022/03/25 00:50:56;;;;;;;23.37;14.50;;;;;;;;;;5002917;28;20604;-36
2022/03/25 00:53:23;;;;;;;23.70;14.83;;;;;;;;;;5001523;28;20442;-36
2022/03/25 00:55:49;;;;;;;21.70;13.90;;;;;;;;;;5000818;28;20440;-36
2022/03/25 00:58:15;;;;;;;22.70;13.60;;;;;;;;;;5001181;28;20426;-36
2022/03/25 01:00:42;;;;;;;20.03;13.03;;;;;;;;;;4983778;28;20825;-36
2022/03/25 01:03:08;;;;;;;24.33;12.77;;;;;;;;;;5005068;28;20628;-36
2022/03/25 01:05:34;;;;;;;19.53;12.87;;;;;;;;;;5001180;28;20453;-36
2022/03/25 01:08:00;;;;;;;22.50;13.87;;;;;;;;;;5003509;28;20846;-36
2022/03/25 01:10:27;;;;;;;21.80;13.00;;;;;;;;;;4999984;28;20440;-37
2022/03/25 01:12:53;;;;;;;21.00;12.70;;;;;;;;;;4991074;28;20716;-36
2022/03/25 01:15:19;;;;;;;22.70;13.27;;;;;;;;;;5000286;28;20260;-36
2022/03/25 01:17:45;;;;;;;23.80;13.03;;;;;;;;;;5004123;28;20430;-36
2022/03/25 01:20:11;;;;;;;25.10;13.07;;;;;;;;;;4999710;28;20781;-36
2022/03/25 01:22:37;;;;;;;24.43;13.90;;;;;;;;;;5001175;28;20761;-36
2022/03/25 01:25:03;;;;;;;25.03;14.00;;;;;;;;;;5000709;28;20426;-36
2022/03/25 01:27:29;;;;;;;25.63;14.07;;;;;;;;;;5004181;28;20448;-36
2022/03/25 01:29:56;;;;;;;24.23;13.77;;;;;;;;;;4984805;28;20727;-36
2022/03/25 01:32:23;;;;;;;25.20;13.80;;;;;;;;;;4998529;28;20760;-36
2022/03/25 01:34:49;;;;;;;22.73;14.20;;;;;;;;;;5002598;28;20430;-36
2022/03/25 01:37:15;;;;;;;26.57;15.13;;;;;;;;;;5002309;28;20438;-36
2022/03/25 01:39:42;;;;;;;25.27;14.53;;;;;;;;;;4997096;28;20431;-36
2022/03/25 01:42:08;;;;;;;26.60;14.67;;;;;;;;;;5001328;28;20524;-36
2022/03/25 01:44:34;;;;;;;27.83;15.53;;;;;;;;;;5002277;28;20430;-36
2022/03/25 01:47:00;;;;;;;24.17;15.67;;;;;;;;;;4999871;28;20721;-36
2022/03/25 01:49:26;;;;;;;27.07;15.23;;;;;;;;;;4998769;28;20568;-36
2022/03/25 01:51:54;;;;;;;23.97;15.57;;;;;;;;;;5004439;28;20903;-36
2022/03/25 01:54:24;;;;;;;25.30;15.50;;;;;;;;;;5004484;28;20594;-36
2022/03/25 01:56:55;;;;;;;29.07;16.33;;;;;;;;;;4999170;28;21259;-36
2022/03/25 01:59:21;;;;;;;27.37;16.43;;;;;;;;;;5002568;28;20811;-36
2022/03/25 02:01:48;;;;;;;26.50;17.20;;;;;;;;;;5003882;28;20859;-36
2022/03/25 02:04:14;;;;;;;28.60;16.83;;;;;;;;;;5004356;28;20894;-36
2022/03/25 02:06:40;;;;;;;29.53;17.20;;;;;;;;;;5003506;28;20548;-36
2022/03/25 02:09:06;;;;;;;32.20;17.10;;;;;;;;;;4995827;28;20670;-36
2022/03/25 02:11:35;;;;;;;27.30;17.03;;;;;;;;;;5004053;28;20733;-36
2022/03/25 02:14:02;;;;;;;31.70;18.40;;;;;;;;;;5006490;28;20711;-36
2022/03/25 02:16:35;;;;;;;32.67;17.67;;;;;;;;;;5005764;28;20810;-36
2022/03/25 02:19:01;;;;;;;33.03;17.37;;;;;;;;;;5005391;28;20428;-36
2022/03/25 02:21:31;;;;;;;29.30;17.50;;;;;;;;;;4986314;28;20422;-36
2022/03/25 02:23:58;;;;;;;29.33;17.50;;;;;;;;;;5006643;28;20849;-36
2022/03/25 02:26:24;;;;;;;37.50;19.23;;;;;;;;;;5006710;28;20450;-36
2022/03/25 02:28:50;;;;;;;30.00;17.03;;;;;;;;;;5005150;28;20865;-36
2022/03/25 02:31:17;;;;;;;34.07;19.47;;;;;;;;;;5000597;28;20692;-36
2022/03/25 02:33:43;;;;;;;33.90;17.97;;;;;;;;;;5005884;28;20662;-36
2022/03/25 02:36:10;;;;;;;31.93;18.83;;;;;;;;;;5005719;28;20423;-36
2022/03/25 02:38:37;;;;;;;30.27;18.40;;;;;;;;;;4987553;28;20426;-36
2022/03/25 02:41:03;;;;;;;33.40;19.73;;;;;;;;;;4986299;28;20481;-36
2022/03/25 02:43:30;;;;;;;36.20;20.10;;;;;;;;;;5002647;28;20669;-36
2022/03/25 02:45:56;;;;;;;35.60;19.40;;;;;;;;;;5005903;28;20796;-36
2022/03/25 02:48:22;;;;;;;36.23;19.90;;;;;;;;;;5004533;28;20434;-36
2022/03/25 02:50:49;;;;;;;33.57;18.77;;;;;;;;;;5004252;28;20989;-36
2022/03/25 02:53:15;;;;;;;31.57;18.77;;;;;;;;;;5000751;28;20709;-36
2022/03/25 02:55:42;;;;;;;31.60;17.50;;;;;;;;;;5004194;28;20430;-36
2022/03/25 02:58:09;;;;;;;27.97;18.13;;;;;;;;;;5002047;28;20545;-36
2022/03/25 03:00:35;;;;;;;31.77;19.07;;;;;;;;;;5001832;28;20471;-36
2022/03/25 03:03:02;;;;;;;31.83;19.07;;;;;;;;;;5003533;28;20781;-36
2022/03/25 03:05:29;;;;;;;29.60;18.10;;;;;;;;;;5000296;28;20723;-36
2022/03/25 03:07:55;;;;;;;30.83;18.80;;;;;;;;;;5001278;28;20503;-37
2022/03/25 03:10:21;;;;;;;34.03;20.30;;;;;;;;;;5004251;28;21052;-36
2022/03/25 03:12:47;;;;;;;29.63;17.47;;;;;;;;;;5005107;28;20438;-36
2022/03/25 03:15:16;;;;;;;31.77;17.83;;;;;;;;;;5001659;28;22007;-36
2022/03/25 03:17:43;;;;;;;29.27;17.17;;;;;;;;;;4981929;28;20430;-36
2022/03/25 03:20:10;;;;;;;24.60;16.20;;;;;;;;;;5007175;28;20513;-36
2022/03/25 03:22:36;;;;;;;25.97;15.87;;;;;;;;;;5003791;28;21029;-36
2022/03/25 03:25:03;;;;;;;27.37;15.73;;;;;;;;;;5003859;28;20508;-36
2022/03/25 03:27:29;;;;;;;25.83;13.87;;;;;;;;;;5002396;28;20730;-33
2022/03/25 03:29:56;;;;;;;20.97;13.23;;;;;;;;;;4983344;28;20930;-33
2022/03/25 03:32:22;;;;;;;24.07;12.37;;;;;;;;;;5002457;28;20457;-33
2022/03/25 03:34:48;;;;;;;19.07;11.97;;;;;;;;;;5004318;28;20414;-36
2022/03/25 03:37:15;;;;;;;21.27;12.37;;;;;;;;;;5005358;28;20949;-36
2022/03/25 03:39:41;;;;;;;19.53;11.67;;;;;;;;;;4985419;28;20434;-36
2022/03/25 03:42:08;;;;;;;21.20;11.47;;;;;;;;;;4982370;28;20442;-36
2022/03/25 03:44:36;;;;;;;18.57;10.97;;;;;;;;;;5003634;28;20423;-36
2022/03/25 03:47:03;;;;;;;17.73;10.77;;;;;;;;;;5002866;28;21031;-34
2022/03/25 03:49:29;;;;;;;18.80;10.90;;;;;;;;;;5007660;28;20456;-33
2022/03/25 03:51:55;;;;;;;19.00;10.20;;;;;;;;;;5004272;28;20414;-36
2022/03/25 03:54:21;;;;;;;19.33;9.73;;;;;;;;;;5003556;28;20489;-36
2022/03/25 03:56:48;;;;;;;13.93;8.60;;;;;;;;;;5002640;28;20422;-36
2022/03/25 03:59:14;;;;;;;17.23;9.53;;;;;;;;;;5003936;28;20462;-36
2022/03/25 04:01:40;;;;;;;14.93;8.37;;;;;;;;;;5003928;28;20496;-36
2022/03/25 04:04:06;;;;;;;13.37;8.17;;;;;;;;;;5001942;28;20962;-36
2022/03/25 04:06:33;;;;;;;14.37;8.00;;;;;;;;;;4998916;28;21220;-36
2022/03/25 04:08:59;;;;;;;15.17;8.07;;;;;;;;;;5001528;28;20627;-36
2022/03/25 04:11:25;;;;;;;12.57;7.20;;;;;;;;;;5004756;28;20433;-35
2022/03/25 04:13:51;;;;;;;13.50;7.17;;;;;;;;;;5002158;28;20926;-36
2022/03/25 04:16:18;;;;;;;10.77;7.50;;;;;;;;;;4985073;28;20465;-35
2022/03/25 04:18:44;;;;;;;10.97;7.10;;;;;;;;;;5003445;28;20737;-36
2022/03/25 04:21:10;;;;;;;13.23;7.17;;;;;;;;;;5003108;28;20427;-36
2022/03/25 04:23:36;;;;;;;10.53;6.93;;;;;;;;;;5000342;28;20442;-35
2022/03/25 04:26:02;;;;;;;14.27;7.20;;;;;;;;;;5003149;28;20527;-36
2022/03/25 04:28:29;;;;;;;11.07;6.93;;;;;;;;;;5002427;28;21863;-35
2022/03/25 04:30:55;;;;;;;13.83;6.70;;;;;;;;;;5003135;28;20504;-36
2022/03/25 04:33:21;;;;;;;10.40;6.43;;;;;;;;;;4999095;28;20478;-35
2022/03/25 04:35:47;;;;;;;11.70;6.70;;;;;;;;;;5002971;28;20893;-36
2022/03/25 04:38:14;;;;;;;10.10;6.67;;;;;;;;;;4983046;28;20516;-35
2022/03/25 04:40:41;;;;;;;9.07;6.23;;;;;;;;;;4998739;28;20743;-35
2022/03/25 04:43:07;;;;;;;9.83;6.40;;;;;;;;;;4999675;28;20966;-36
2022/03/25 04:45:34;;;;;;;14.03;6.50;;;;;;;;;;5001333;28;20990;-36
2022/03/25 04:48:00;;;;;;;13.00;6.47;;;;;;;;;;4999345;28;20450;-36
2022/03/25 04:50:27;;;;;;;9.80;6.10;;;;;;;;;;5003090;28;21043;-36
2022/03/25 04:52:54;;;;;;;9.30;5.93;;;;;;;;;;5001495;28;20414;-35
2022/03/25 04:55:20;;;;;;;9.83;6.23;;;;;;;;;;5003436;28;20634;-36
2022/03/25 04:57:47;;;;;;;14.37;6.50;;;;;;;;;;4999298;28;20922;-36
2022/03/25 05:00:13;;;;;;;11.53;6.10;;;;;;;;;;5001509;28;20444;-36
2022/03/25 05:02:39;;;;;;;12.87;6.63;;;;;;;;;;5006454;28;20446;-35
2022/03/25 05:05:06;;;;;;;10.80;5.97;;;;;;;;;;4998997;28;20892;-36
2022/03/25 05:07:32;;;;;;;10.07;5.90;;;;;;;;;;5002790;28;20430;-35
2022/03/25 05:09:59;;;;;;;9.47;5.83;;;;;;;;;;5002899;28;20827;-35
2022/03/25 05:12:25;;;;;;;10.27;6.00;;;;;;;;;;5004875;28;20832;-35
2022/03/25 05:14:51;;;;;;;12.93;6.03;;;;;;;;;;4999679;28;20849;-36
2022/03/25 05:17:17;;;;;;;10.03;6.07;;;;;;;;;;4997595;28;20500;-35
2022/03/25 05:19:44;;;;;;;11.20;6.23;;;;;;;;;;5001848;28;20962;-35
2022/03/25 05:22:10;;;;;;;11.00;5.77;;;;;;;;;;5000997;28;20452;-35
2022/03/25 05:24:36;;;;;;;9.77;5.67;;;;;;;;;;4997479;28;20429;-35
2022/03/25 05:27:02;;;;;;;11.27;5.90;;;;;;;;;;5000823;28;20422;-35
2022/03/25 05:29:29;;;;;;;11.33;6.20;;;;;;;;;;5002573;28;20913;-36
2022/03/25 05:31:55;;;;;;;13.07;6.37;;;;;;;;;;5002134;28;20558;-35
2022/03/25 05:34:21;;;;;;;17.20;6.97;;;;;;;;;;5002459;28;20422;-35
2022/03/25 05:36:47;;;;;;;13.33;6.10;;;;;;;;;;4989494;28;20426;-36
2022/03/25 05:39:15;;;;;;;10.93;6.53;;;;;;;;;;5005369;28;20430;-35
2022/03/25 05:41:41;;;;;;;19.07;7.30;;;;;;;;;;5000596;28;20418;-35
2022/03/25 05:44:07;;;;;;;13.70;6.17;;;;;;;;;;4988246;28;20841;-36
2022/03/25 05:46:34;;;;;;;12.37;6.67;;;;;;;;;;5005293;28;20510;-36
2022/03/25 05:49:01;;;;;;;9.67;6.23;;;;;;;;;;5003800;28;20496;-37
2022/03/25 05:51:27;;;;;;;11.87;6.70;;;;;;;;;;4979703;28;20426;-35
2022/03/25 05:53:53;;;;;;;11.77;6.57;;;;;;;;;;5005283;28;20763;-36
2022/03/25 05:56:20;;;;;;;15.13;7.07;;;;;;;;;;5005228;28;21299;-36
2022/03/25 05:58:47;;;;;;;14.97;7.37;;;;;;;;;;4982816;28;20426;-35
2022/03/25 06:01:13;;;;;;;12.17;6.90;;;;;;;;;;5003004;28;20441;-36
2022/03/25 06:03:39;;;;;;;15.13;8.27;;;;;;;;;;5006642;28;20438;-36
2022/03/25 06:06:06;;;;;;;13.50;6.90;;;;;;;;;;5006818;28;21231;-36
2022/03/25 06:08:32;;;;;;;15.23;8.27;;;;;;;;;;5004099;28;20457;-36
2022/03/25 06:10:59;;;;;;;12.90;7.20;;;;;;;;;;5002220;28;20760;-36
2022/03/25 06:13:26;;;;;;;15.50;7.17;;;;;;;;;;5002960;28;20504;-36
2022/03/25 06:15:52;;;;;;;14.53;7.30;;;;;;;;;;4988937;28;21240;-36
2022/03/25 06:18:19;;;;;;;12.80;6.90;;;;;;;;;;5002149;28;20429;-36
2022/03/25 06:20:45;;;;;;;18.40;8.33;;;;;;;;;;5006006;28;20423;-36
2022/03/25 06:23:11;;;;;;;13.47;7.07;;;;;;;;;;4987781;28;20731;-36
2022/03/25 06:25:37;;;;;;;14.77;7.60;;;;;;;;;;5004451;28;20435;-36
2022/03/25 06:28:07;;;;;;;14.43;7.57;;;;;;;;;;4996177;28;20426;-35
2022/03/25 06:30:37;;;;;;;13.73;7.70;;;;;;;;;;4998845;28;20824;-36
2022/03/25 06:33:09;;;;;;;14.60;7.60;;;;;;;;;;5005013;28;20424;-36
2022/03/25 06:35:36;;;;;;;13.63;7.60;;;;;;;;;;5008276;28;20481;-36
2022/03/25 06:38:03;;;;;;;12.33;6.37;;;;;;;;;;5001109;28;20423;-36
2022/03/25 06:40:29;;;;;;;16.73;7.67;;;;;;;;;;5011208;28;20433;-36
2022/03/25 06:42:57;;;;;;;15.53;7.63;;;;;;;;;;5005130;28;20434;-36
2022/03/25 06:45:23;;;;;;;16.23;7.47;;;;;;;;;;5004259;28;20554;-36
2022/03/25 06:47:50;;;;;;;16.40;7.00;;;;;;;;;;5006575;28;20448;-36
2022/03/25 06:50:17;;;;;;;18.60;8.03;;;;;;;;;;5006576;28;21969;-36
2022/03/25 06:52:43;;;;;;;19.53;7.70;;;;;;;;;;5008085;28;20856;-36
2022/03/25 06:55:10;;;;;;;14.47;7.30;;;;;;;;;;5003021;28;20348;-36
2022/03/25 06:57:36;;;;;;;14.70;8.10;;;;;;;;;;4992627;28;20425;-36
2022/03/25 07:00:04;;;;;;;17.67;8.23;;;;;;;;;;5006067;28;20215;-36
2022/03/25 07:02:30;;;;;;;11.53;6.90;;;;;;;;;;5007302;28;21236;-36
2022/03/25 07:04:56;;;;;;;15.37;7.20;;;;;;;;;;5007435;28;20215;-36
2022/03/25 07:07:26;;;;;;;17.93;8.63;;;;;;;;;;5007479;28;20674;-36
2022/03/25 07:09:53;;;;;;;15.00;7.77;;;;;;;;;;5004817;28;20371;-36
2022/03/25 07:12:19;;;;;;;16.00;7.30;;;;;;;;;;5007227;28;20182;-36
2022/03/25 07:14:45;;;;;;;15.37;7.47;;;;;;;;;;5004803;28;20180;-36
2022/03/25 07:17:12;;;;;;;12.70;6.57;;;;;;;;;;5004471;28;20886;-36
2022/03/25 07:19:38;;;;;;;15.53;7.43;;;;;;;;;;4983780;28;20186;-36
2022/03/25 07:22:04;;;;;;;12.10;7.70;;;;;;;;;;4987611;28;20507;-36
2022/03/25 07:24:30;;;;;;;11.90;7.03;;;;;;;;;;5007283;28;20635;-36
2022/03/25 07:26:56;;;;;;;13.87;7.43;;;;;;;;;;5005005;28;20291;-36
2022/03/25 07:29:22;;;;;;;20.27;8.30;;;;;;;;;;5000866;28;20698;-36
2022/03/25 07:31:48;;;;;;;16.07;7.87;;;;;;;;;;5006336;28;20501;-37
2022/03/25 07:34:15;;;;;;;14.03;7.83;;;;;;;;;;5007817;28;20184;-36
2022/03/25 07:36:41;;;;;;;13.67;7.87;;;;;;;;;;5004977;28;20180;-36
2022/03/25 07:39:07;;;;;;;18.43;8.47;;;;;;;;;;5004815;28;20180;-36
2022/03/25 07:41:34;;;;;;;17.27;8.70;;;;;;;;;;5005461;28;20564;-37
2022/03/25 07:44:00;;;;;;;15.43;8.83;;;;;;;;;;5002884;28;20204;-37
2022/03/25 07:46:28;;;;;;;22.03;9.00;;;;;;;;;;5004639;28;20187;-36
2022/03/25 07:48:54;;;;;;;19.73;9.17;;;;;;;;;;5007342;28;20840;-36
2022/03/25 07:51:20;;;;;;;17.40;9.37;;;;;;;;;;5007077;28;20448;-37
2022/03/25 07:53:46;;;;;;;18.47;9.33;;;;;;;;;;5004950;28;20250;-37
2022/03/25 07:56:12;;;;;;;16.47;9.43;;;;;;;;;;5006516;28;20206;-37
2022/03/25 07:58:39;;;;;;;14.97;9.33;;;;;;;;;;5006657;28;20271;-37
2022/03/25 08:01:05;;;;;;;17.10;9.20;;;;;;;;;;5004054;28;20378;-37
2022/03/25 08:03:31;;;;;;;16.87;9.60;;;;;;;;;;5005163;28;20230;-37
2022/03/25 08:05:57;;;;;;;16.30;9.30;;;;;;;;;;5008127;28;20392;-37
2022/03/25 08:08:23;;;;;;;16.23;8.50;;;;;;;;;;4986169;28;20738;-37
2022/03/25 08:10:55;;;;;;;17.83;9.37;;;;;;;;;;5004068;28;20168;-39
2022/03/25 08:13:22;;;;;;;17.87;10.17;;;;;;;;;;5008645;28;20514;-37
2022/03/25 08:15:48;;;;;;;22.50;10.73;;;;;;;;;;5005592;28;20544;-38
2022/03/25 08:18:16;;;;;;;20.80;10.67;;;;;;;;;;5003794;28;20233;-36
2022/03/25 08:20:43;;;;;;;22.57;11.50;;;;;;;;;;5001292;28;20613;-37
2022/03/25 08:27:48;;;;;;;18.87;11.20;;;;;;;;;;4982866;28;20266;-37
2022/03/25 08:28:45;;;;;;;20.17;11.40;;;;;;;;;;5001960;28;21017;-36
2022/03/25 08:31:11;;;;;;;20.17;12.90;;;;;;;;;;5004113;28;20184;-36
2022/03/25 08:33:37;;;;;;;23.77;14.03;;;;;;;;;;5006229;28;20946;-36
2022/03/25 08:36:03;;;;;;;22.30;14.13;;;;;;;;;;5005352;28;20612;-36
2022/03/25 08:38:29;;;;;;;25.60;14.90;;;;;;;;;;5002505;28;20488;-36
2022/03/25 08:40:55;;;;;;;24.40;14.13;;;;;;;;;;5004885;28;20794;-36
2022/03/25 08:43:21;;;;;;;23.03;14.70;;;;;;;;;;5004531;28;20203;-36
2022/03/25 08:45:47;;;;;;;27.23;15.63;;;;;;;;;;5000409;28;20550;-36
2022/03/25 08:48:13;;;;;;;26.93;15.67;;;;;;;;;;5001197;28;20767;-36
2022/03/25 08:50:40;;;;;;;22.70;14.67;;;;;;;;;;5004610;28;20533;-38
2022/03/25 08:53:06;;;;;;;23.20;15.73;;;;;;;;;;5003531;28;20184;-37
2022/03/25 08:55:32;;;;;;;25.40;15.50;;;;;;;;;;5003528;28;20291;-37
2022/03/25 08:57:59;;;;;;;29.23;15.47;;;;;;;;;;5001617;28;20310;-37
2022/03/25 09:00:25;;;;;;;28.20;15.83;;;;;;;;;;5004598;28;20702;-36
2022/03/25 09:02:51;;;;;;;19.80;15.10;;;;;;;;;;5007105;28;20727;-37
2022/03/25 09:05:17;;;;;;;24.23;16.40;;;;;;;;;;5004094;28;20573;-37
2022/03/25 09:07:45;;;;;;;24.73;15.27;;;;;;;;;;5002936;28;20504;-37
2022/03/25 09:10:14;;;;;;;27.60;16.67;;;;;;;;;;5006096;28;20614;-36
2022/03/25 09:12:41;;;;;;;30.50;16.20;;;;;;;;;;5008054;28;20183;-37
2022/03/25 09:15:08;;;;;;;25.00;16.07;;;;;;;;;;5005459;28;20191;-36
2022/03/25 09:17:34;;;;;;;22.63;16.33;;;;;;;;;;4986391;28;20185;-37
2022/03/25 09:20:03;;;;;;;25.73;16.43;;;;;;;;;;5007972;28;20175;-37
2022/03/25 09:22:30;;;;;;;28.87;17.37;;;;;;;;;;5010369;28;20195;-37
2022/03/25 09:24:56;;;;;;;22.80;16.53;;;;;;;;;;5007210;28;20302;-37
2022/03/25 09:27:22;;;;;;;25.60;17.03;;;;;;;;;;5007279;28;20168;-37
2022/03/25 09:29:48;;;;;;;24.97;17.17;;;;;;;;;;5007486;28;20172;-37
2022/03/25 09:32:14;;;;;;;27.90;17.60;;;;;;;;;;5010638;28;20302;-37
2022/03/25 09:37:25;;;;;;;28.23;17.60;;;;;;;;;;5007617;28;20825;-37
2022/03/25 09:39:52;;;;;;;26.13;18.50;;;;;;;;;;5008112;28;20172;-37
2022/03/25 09:42:19;;;;;;;28.70;17.80;;;;;;;;;;5009511;28;20175;-37
2022/03/25 09:44:45;;;;;;;24.53;17.17;;;;;;;;;;5006738;28;20639;-38
2022/03/25 09:47:14;;;;;;;26.50;16.87;;;;;;;;;;5005712;28;20629;-37
2022/03/25 09:49:40;;;;;;;23.93;16.43;;;;;;;;;;4991411;28;20168;-37
2022/03/25 09:52:07;;;;;;;23.57;16.70;;;;;;;;;;5007930;28;20659;-37
2022/03/25 09:54:34;;;;;;;22.50;17.07;;;;;;;;;;5006413;28;20643;-37
2022/03/25 09:57:01;;;;;;;23.13;16.13;;;;;;;;;;5005700;28;20179;-37
2022/03/25 09:59:27;;;;;;;29.87;17.93;;;;;;;;;;5004563;28;20478;-37
2022/03/25 10:01:53;;;;;;;29.10;18.23;;;;;;;;;;5009642;28;20194;-37
2022/03/25 10:04:55;;;;;;;21.77;16.00;;;;;;;;;;5007439;28;21180;-37
2022/03/25 10:07:21;;;;;;;22.70;16.20;;;;;;;;;;4964010;28;20642;-37
2022/03/25 10:10:06;;;;;;;23.77;16.00;;;;;;;;;;5008586;28;20172;-37
2022/03/25 10:12:32;;;;;;;23.27;15.83;;;;;;;;;;5009088;28;20899;-37
2022/03/25 10:15:20;;;;;;;23.33;16.30;;;;;;;;;;5004483;28;20164;-37
2022/03/25 10:17:52;;;;;;;21.43;16.27;;;;;;;;;;5008024;28;20184;-37
2022/03/25 10:20:20;;;;;;;23.63;16.53;;;;;;;;;;5005635;28;20214;-37
2022/03/25 10:22:59;;;;;;;20.23;15.47;;;;;;;;;;5007891;28;20572;-37
2022/03/25 10:25:36;;;;;;;26.83;16.00;;;;;;;;;;5005673;28;20168;-37
2022/03/25 10:28:02;;;;;;;20.63;15.10;;;;;;;;;;5007477;28;20168;-37
2022/03/25 10:30:39;;;;;;;25.90;16.83;;;;;;;;;;5007214;28;20184;-37
2022/03/25 10:33:12;;;;;;;25.97;16.20;;;;;;;;;;5004817;28;20715;-37
2022/03/25 10:35:53;;;;;;;26.90;18.33;;;;;;;;;;5009092;28;20184;-37
2022/03/25 10:38:21;;;;;;;24.33;16.90;;;;;;;;;;5008006;28;20194;-37
2022/03/25 10:40:49;;;;;;;22.73;16.30;;;;;;;;;;5002525;28;20602;-38
2022/03/25 10:43:16;;;;;;;20.23;13.77;;;;;;;;;;5006357;28;20308;-37
2022/03/25 10:45:42;;;;;;;22.67;15.83;;;;;;;;;;5006540;28;20183;-37
2022/03/25 10:48:16;;;;;;;22.87;16.07;;;;;;;;;;5004813;28;20277;-38
2022/03/25 10:51:01;;;;;;;24.30;17.20;;;;;;;;;;5002889;28;20180;-37
2022/03/25 10:53:29;;;;;;;22.93;17.03;;;;;;;;;;4990568;28;20550;-37
2022/03/25 10:55:56;;;;;;;23.03;16.43;;;;;;;;;;5000711;28;20374;-37
2022/03/25 10:58:22;;;;;;;26.97;16.93;;;;;;;;;;4984427;28;20291;-37
2022/03/25 11:00:49;;;;;;;25.20;16.47;;;;;;;;;;5007420;28;20656;-37
2022/03/25 11:03:16;;;;;;;22.90;16.60;;;;;;;;;;5008414;28;20196;-36
2022/03/25 11:05:43;;;;;;;27.40;18.73;;;;;;;;;;4988177;28;20432;-37
2022/03/25 11:08:09;;;;;;;24.03;17.00;;;;;;;;;;5003469;28;20381;-37
2022/03/25 11:10:36;;;;;;;28.70;18.57;;;;;;;;;;5007335;28;20173;-37
2022/03/25 11:13:03;;;;;;;29.10;20.73;;;;;;;;;;5006042;28;20222;-37
2022/03/25 11:15:30;;;;;;;24.87;17.27;;;;;;;;;;5002830;28;20182;-37
2022/03/25 11:17:56;;;;;;;23.00;17.37;;;;;;;;;;5006500;28;20176;-37
2022/03/25 11:20:24;;;;;;;28.90;17.93;;;;;;;;;;5007439;28;20188;-37
2022/03/25 11:22:53;;;;;;;22.93;17.03;;;;;;;;;;5004305;28;20196;-37
2022/03/25 11:25:24;;;;;;;22.97;16.57;;;;;;;;;;5005336;28;21158;-37
2022/03/25 11:27:53;;;;;;;24.00;16.20;;;;;;;;;;5005700;28;20635;-37
2022/03/25 11:30:19;;;;;;;22.90;16.53;;;;;;;;;;5006333;28;20179;-37
2022/03/25 11:32:58;;;;;;;23.20;15.17;;;;;;;;;;5004089;28;20516;-37
2022/03/25 11:35:24;;;;;;;21.07;14.67;;;;;;;;;;5004369;28;20176;-38
2022/03/25 11:38:29;;;;;;;19.10;14.83;;;;;;;;;;5008459;28;20610;-37
2022/03/25 11:40:55;;;;;;;21.50;15.87;;;;;;;;;;4925651;28;20617;-37
2022/03/25 11:43:28;;;;;;;21.80;16.07;;;;;;;;;;4911379;28;20290;-37
2022/03/25 11:46:00;;;;;;;21.10;14.97;;;;;;;;;;4949946;28;20184;-37
2022/03/25 11:48:26;;;;;;;25.77;15.93;;;;;;;;;;5005369;28;20249;-37
2022/03/25 11:50:55;;;;;;;23.60;16.33;;;;;;;;;;5004274;28;20211;-37
2022/03/25 11:53:24;;;;;;;27.83;18.33;;;;;;;;;;5006116;28;20184;-37
2022/03/25 11:55:56;;;;;;;23.50;17.23;;;;;;;;;;5008516;28;20270;-37
2022/03/25 11:58:23;;;;;;;22.90;16.77;;;;;;;;;;5004363;28;20173;-37
2022/03/25 12:00:52;;;;;;;22.20;17.37;;;;;;;;;;5001553;28;20226;-37
2022/03/25 12:03:20;;;;;;;24.47;17.93;;;;;;;;;;5008588;28;20188;-37
2022/03/25 12:05:59;;;;;;;28.10;18.37;;;;;;;;;;5007422;28;20582;-37
2022/03/25 12:08:31;;;;;;;24.77;17.40;;;;;;;;;;5000807;28;20707;-37
2022/03/25 12:11:01;;;;;;;23.63;17.20;;;;;;;;;;5005049;28;20576;-37
2022/03/25 12:13:46;;;;;;;22.93;15.90;;;;;;;;;;5007347;28;20204;-37
2022/03/25 12:16:12;;;;;;;23.97;16.80;;;;;;;;;;5004346;28;20909;-37
2022/03/25 12:18:44;;;;;;;19.90;15.43;;;;;;;;;;5006556;28;20262;-37
2022/03/25 12:21:30;;;;;;;21.60;15.50;;;;;;;;;;5002330;28;20540;-37
2022/03/25 12:24:00;;;;;;;21.10;15.77;;;;;;;;;;5001174;28;20496;-37
2022/03/25 12:26:29;;;;;;;20.47;15.20;;;;;;;;;;5003909;28;20173;-37
2022/03/25 12:28:55;;;;;;;23.67;14.23;;;;;;;;;;5005042;28;20183;-37
2022/03/25 12:31:22;;;;;;;21.60;16.17;;;;;;;;;;5003342;28;20432;-37
2022/03/25 12:33:54;;;;;;;19.97;13.77;;;;;;;;;;5001429;28;21109;-37
2022/03/25 12:36:20;;;;;;;22.53;14.40;;;;;;;;;;5001179;28;20179;-37
2022/03/25 12:38:47;;;;;;;23.63;14.20;;;;;;;;;;5006463;28;20839;-37
2022/03/25 12:41:24;;;;;;;20.43;13.57;;;;;;;;;;4988188;28;20639;-37
2022/03/25 12:44:01;;;;;;;20.33;14.77;;;;;;;;;;5003696;28;20184;-37
2022/03/25 12:46:28;;;;;;;21.07;15.13;;;;;;;;;;5003606;28;20191;-37
2022/03/25 12:49:02;;;;;;;21.37;14.70;;;;;;;;;;5000759;28;20604;-37
2022/03/25 12:51:28;;;;;;;18.57;14.73;;;;;;;;;;5002250;28;20169;-37
2022/03/25 12:53:55;;;;;;;21.37;14.70;;;;;;;;;;4999733;28;20186;-38
2022/03/25 12:56:21;;;;;;;22.83;14.97;;;;;;;;;;5003573;28;20223;-37
2022/03/25 12:58:47;;;;;;;19.53;15.13;;;;;;;;;;5003486;28;20173;-36
2022/03/25 13:01:17;;;;;;;20.97;14.07;;;;;;;;;;5002783;28;22039;-35
2022/03/25 13:03:47;;;;;;;20.17;14.97;;;;;;;;;;5005714;28;21048;-35
2022/03/25 13:06:14;;;;;;;22.30;13.87;;;;;;;;;;5006049;28;21465;-36
2022/03/25 13:08:41;;;;;;;17.97;14.83;;;;;;;;;;5002446;28;20176;-35
2022/03/25 13:11:07;;;;;;;17.73;13.60;;;;;;;;;;5001156;28;20282;-35
2022/03/25 13:13:38;;;;;;;18.43;13.57;;;;;;;;;;5006561;28;20306;-35
2022/03/25 13:16:08;;;;;;;20.43;13.73;;;;;;;;;;5005024;28;20161;-35
2022/03/25 13:18:37;;;;;;;14.77;12.23;;;;;;;;;;5004850;28;20702;-36
2022/03/25 13:21:03;;;;;;;17.60;13.83;;;;;;;;;;5002104;28;20226;-35
2022/03/25 13:23:29;;;;;;;17.20;12.90;;;;;;;;;;5003005;28;20249;-35
2022/03/25 13:25:56;;;;;;;20.03;14.97;;;;;;;;;;5004035;28;20467;-35
2022/03/25 13:28:22;;;;;;;19.23;14.53;;;;;;;;;;5003844;28;21582;-35
2022/03/25 13:30:48;;;;;;;15.73;12.83;;;;;;;;;;4999675;28;20713;-35
2022/03/25 13:33:25;;;;;;;19.77;14.17;;;;;;;;;;5003081;28;20188;-34
2022/03/25 13:35:52;;;;;;;20.27;14.13;;;;;;;;;;5005470;28;20227;-35
2022/03/25 13:38:22;;;;;;;19.73;14.80;;;;;;;;;;5003739;28;20175;-35
2022/03/25 13:40:50;;;;;;;20.40;14.93;;;;;;;;;;5001250;28;20184;-38
2022/03/25 13:43:20;;;;;;;21.57;15.13;;;;;;;;;;5004636;28;20545;-35
2022/03/25 13:46:00;;;;;;;22.13;15.90;;;;;;;;;;5003964;28;20977;-35
2022/03/25 13:48:35;;;;;;;20.07;16.50;;;;;;;;;;5001987;28;20246;-35
2022/03/25 13:51:01;;;;;;;19.73;14.73;;;;;;;;;;5000122;28;20179;-37
2022/03/25 13:53:34;;;;;;;17.97;13.93;;;;;;;;;;5007137;28;20543;-37
2022/03/25 13:56:17;;;;;;;19.90;14.67;;;;;;;;;;5007699;28;20617;-38
2022/03/25 13:59:10;;;;;;;21.03;15.70;;;;;;;;;;4986626;28;20180;-37
2022/03/25 14:01:41;;;;;;;22.03;14.87;;;;;;;;;;5001221;28;20265;-37
2022/03/25 14:04:11;;;;;;;22.47;14.87;;;;;;;;;;5007669;28;20212;-37
2022/03/25 14:06:39;;;;;;;21.70;14.80;;;;;;;;;;5008803;28;20176;-37
2022/03/25 14:09:24;;;;;;;19.30;15.03;;;;;;;;;;5004785;28;20716;-37
2022/03/25 14:11:50;;;;;;;19.80;15.50;;;;;;;;;;5006911;28;20516;-37
2022/03/25 14:14:25;;;;;;;17.80;14.83;;;;;;;;;;5009930;28;20567;-37
2022/03/25 14:16:55;;;;;;;19.37;15.13;;;;;;;;;;5007798;28;20175;-37
2022/03/25 14:19:22;;;;;;;19.90;15.37;;;;;;;;;;5007575;28;20639;-38
2022/03/25 14:21:48;;;;;;;24.10;16.67;;;;;;;;;;5002988;28;20486;-37
2022/03/25 14:24:38;;;;;;;22.00;16.67;;;;;;;;;;4989636;28;20484;-37
2022/03/25 14:27:05;;;;;;;19.30;16.17;;;;;;;;;;5006004;28;20507;-37
2022/03/25 14:29:31;;;;;;;25.00;18.10;;;;;;;;;;4989006;28;20727;-37
2022/03/25 14:31:58;;;;;;;28.10;17.77;;;;;;;;;;5004378;28;20199;-38